createdAt,value
2022-11-20T00:00:05.437Z,23.17
2022-11-20T00:02:33.006Z,21.97
2022-11-20T00:05:00.547Z,22.10
2022-11-20T00:07:28.049Z,25.23
2022-11-20T00:09:55.529Z,23.00
2022-11-20T00:12:22.951Z,22.20
2022-11-20T00:14:50.449Z,25.53
2022-11-20T00:17:17.924Z,23.07
2022-11-20T00:19:45.430Z,22.60
2022-11-20T00:22:12.896Z,24.43
2022-11-20T00:24:43.027Z,19.67
2022-11-20T00:27:10.908Z,22.60
2022-11-20T00:29:38.337Z,21.70
2022-11-20T00:32:05.942Z,20.73
2022-11-20T00:34:33.393Z,23.20
2022-11-20T00:37:00.971Z,21.33
2022-11-20T00:39:28.427Z,23.93
2022-11-20T00:41:55.921Z,22.83
2022-11-20T00:44:23.350Z,24.60
2022-11-20T00:46:50.854Z,23.30
2022-11-20T00:49:18.458Z,23.67
2022-11-20T00:51:46.190Z,21.20
2022-11-20T00:54:13.582Z,21.90
2022-11-20T00:56:41.016Z,23.30
2022-11-20T00:59:10.403Z,22.93
2022-11-20T01:01:38.492Z,21.13
2022-11-20T01:04:06.453Z,24.00
2022-11-20T01:06:35.741Z,21.93
2022-11-20T01:09:05.154Z,23.70
2022-11-20T01:11:35.730Z,24.17
2022-11-20T01:14:04.255Z,27.40
2022-11-20T01:16:35.957Z,27.67
2022-11-20T01:19:04.722Z,26.80
2022-11-20T01:21:33.337Z,25.07
2022-11-20T01:24:01.353Z,26.70
2022-11-20T01:26:30.552Z,28.37
2022-11-20T01:28:58.515Z,25.17
2022-11-20T01:31:27.410Z,23.73
2022-11-20T01:33:58.030Z,26.43
2022-11-20T01:36:27.457Z,22.17
2022-11-20T01:38:55.811Z,27.53
2022-11-20T01:41:23.882Z,20.87
2022-11-20T01:43:51.294Z,22.97
2022-11-20T01:46:20.118Z,25.50
2022-11-20T01:49:06.008Z,22.80
2022-11-20T01:51:41.355Z,22.87
2022-11-20T01:54:11.284Z,23.60
2022-11-20T01:56:40.017Z,22.73
2022-11-20T01:59:08.845Z,25.37
2022-11-20T02:01:36.553Z,23.90
2022-11-20T02:04:04.259Z,24.73
2022-11-20T02:06:33.543Z,25.40
2022-11-20T02:09:01.028Z,23.43
2022-11-20T02:11:28.465Z,23.97
2022-11-20T02:13:56.061Z,23.73
2022-11-20T02:16:26.298Z,25.10
2022-11-20T02:18:55.105Z,24.30
2022-11-20T02:21:38.676Z,28.23
2022-11-20T02:24:06.267Z,23.80
2022-11-20T02:26:36.407Z,21.47
2022-11-20T02:29:04.384Z,31.20
2022-11-20T02:31:38.574Z,20.33
2022-11-20T02:34:06.030Z,26.87
2022-11-20T02:36:34.185Z,24.07
2022-11-20T02:39:01.727Z,24.97
2022-11-20T02:41:32.786Z,29.60
2022-11-20T02:44:00.285Z,27.33
2022-11-20T02:46:28.333Z,26.37
2022-11-20T02:48:55.829Z,27.63
2022-11-20T02:51:23.486Z,26.57
2022-11-20T02:53:50.923Z,26.27
2022-11-20T02:56:18.364Z,28.20
2022-11-20T02:58:45.835Z,29.10
2022-11-20T03:01:13.498Z,28.17
2022-11-20T03:03:40.980Z,28.53
2022-11-20T03:06:08.783Z,28.90
2022-11-20T03:08:36.356Z,28.63
2022-11-20T03:11:04.828Z,28.43
2022-11-20T03:13:32.282Z,29.03
2022-11-20T03:15:59.719Z,31.60
2022-11-20T03:18:29.239Z,29.27
2022-11-20T03:20:59.955Z,31.17
2022-11-20T03:23:27.552Z,32.47
2022-11-20T03:25:54.950Z,31.13
2022-11-20T03:28:22.443Z,29.37
2022-11-20T03:30:49.894Z,31.13
2022-11-20T03:33:17.348Z,30.53
2022-11-20T03:35:44.809Z,29.10
2022-11-20T03:38:12.413Z,29.57
2022-11-20T03:40:39.861Z,30.13
2022-11-20T03:43:07.280Z,27.47
2022-11-20T03:45:34.886Z,31.13
2022-11-20T03:48:02.324Z,29.73
2022-11-20T03:50:29.853Z,30.20
2022-11-20T03:52:57.506Z,27.97
2022-11-20T03:55:24.972Z,30.23
2022-11-20T03:57:52.426Z,26.20
2022-11-20T04:00:19.938Z,28.43
2022-11-20T04:02:47.803Z,29.20
2022-11-20T04:05:15.350Z,28.10
2022-11-20T04:07:42.840Z,34.27
2022-11-20T04:10:10.606Z,30.47
2022-11-20T04:12:38.087Z,30.57
2022-11-20T04:15:05.716Z,31.30
2022-11-20T04:17:33.189Z,27.20
2022-11-20T04:20:00.649Z,31.93
2022-11-20T04:22:28.404Z,31.27
2022-11-20T04:24:55.830Z,27.63
2022-11-20T04:27:23.273Z,28.97
2022-11-20T04:29:50.747Z,28.23
2022-11-20T04:32:18.294Z,33.77
2022-11-20T04:34:45.724Z,28.50
2022-11-20T04:37:13.129Z,28.07
2022-11-20T04:39:40.546Z,27.77
2022-11-20T04:42:09.984Z,31.20
2022-11-20T04:44:37.649Z,28.33
2022-11-20T04:47:05.121Z,29.23
2022-11-20T04:49:33.460Z,29.20
2022-11-20T04:52:00.993Z,31.63
2022-11-20T04:54:28.576Z,32.97
2022-11-20T04:56:56.062Z,28.53
2022-11-20T04:59:23.904Z,26.97
2022-11-20T05:01:51.690Z,33.80
2022-11-20T05:04:19.237Z,29.77
2022-11-20T05:06:46.744Z,28.80
2022-11-20T05:09:14.366Z,28.83
2022-11-20T05:11:41.870Z,27.83
2022-11-20T05:14:09.439Z,24.40
2022-11-20T05:16:36.922Z,29.13
2022-11-20T05:19:04.362Z,33.70
2022-11-20T05:21:32.315Z,25.23
2022-11-20T05:23:59.767Z,27.20
2022-11-20T05:26:27.207Z,28.37
2022-11-20T05:28:54.687Z,30.97
2022-11-20T05:31:28.104Z,28.47
2022-11-20T05:33:56.944Z,29.43
2022-11-20T05:36:24.422Z,26.67
2022-11-20T05:38:55.452Z,27.97
2022-11-20T05:41:24.277Z,27.13
2022-11-20T05:43:52.105Z,26.97
2022-11-20T05:46:26.486Z,26.67
2022-11-20T05:48:56.045Z,31.67
2022-11-20T05:51:23.557Z,27.50
2022-11-20T05:53:51.161Z,28.17
2022-11-20T05:56:19.615Z,29.10
2022-11-20T05:58:47.410Z,26.43
2022-11-20T06:01:20.681Z,30.67
2022-11-20T06:03:48.616Z,27.57
2022-11-20T06:06:16.941Z,29.40
2022-11-20T06:08:45.013Z,28.60
2022-11-20T06:11:13.203Z,29.67
2022-11-20T06:13:42.472Z,24.27
2022-11-20T06:16:11.091Z,28.10
2022-11-20T06:18:38.909Z,28.40
2022-11-20T06:21:08.229Z,26.80
2022-11-20T06:23:36.540Z,27.10
2022-11-20T06:26:08.227Z,28.57
2022-11-20T06:28:36.103Z,28.53
2022-11-20T06:31:03.621Z,25.57
2022-11-20T06:33:31.513Z,28.43
2022-11-20T06:36:01.626Z,27.50
2022-11-20T06:38:31.697Z,28.33
2022-11-20T06:40:59.472Z,26.43
2022-11-20T06:43:30.097Z,23.87
2022-11-20T06:45:58.228Z,27.63
2022-11-20T06:48:26.866Z,29.13
2022-11-20T06:50:57.564Z,28.67
2022-11-20T06:53:25.481Z,27.17
2022-11-20T06:55:53.348Z,27.33
2022-11-20T06:58:21.375Z,38.47
2022-11-20T07:00:48.843Z,31.53
2022-11-20T07:03:16.323Z,28.63
2022-11-20T07:05:43.764Z,30.80
2022-11-20T07:08:11.310Z,26.90
2022-11-20T07:10:38.745Z,30.17
2022-11-20T07:13:06.399Z,28.53
2022-11-20T07:15:34.086Z,30.63
2022-11-20T07:18:01.840Z,29.73
2022-11-20T07:20:29.512Z,31.03
2022-11-20T07:22:57.597Z,28.87
2022-11-20T07:25:25.809Z,28.50
2022-11-20T07:27:53.352Z,32.10
2022-11-20T07:30:20.787Z,32.83
2022-11-20T07:32:49.033Z,31.33
2022-11-20T07:35:16.536Z,28.97
2022-11-20T07:37:44.004Z,31.50
2022-11-20T07:40:11.801Z,30.53
2022-11-20T07:42:39.271Z,29.13
2022-11-20T07:45:07.013Z,29.67
2022-11-20T07:47:37.877Z,27.93
2022-11-20T07:50:05.540Z,28.03
2022-11-20T07:52:32.977Z,30.10
2022-11-20T07:55:00.402Z,32.27
2022-11-20T07:57:28.561Z,34.47
2022-11-20T07:59:56.161Z,35.20
2022-11-20T08:02:23.639Z,39.70
2022-11-20T08:04:51.069Z,37.73
2022-11-20T08:07:18.590Z,32.70
2022-11-20T08:09:46.134Z,33.57
2022-11-20T08:12:21.042Z,28.50
2022-11-20T08:14:48.459Z,32.90
2022-11-20T08:17:18.913Z,27.63
2022-11-20T08:19:47.639Z,27.70
2022-11-20T08:22:15.109Z,29.43
2022-11-20T08:24:42.630Z,25.90
2022-11-20T08:27:10.064Z,28.93
2022-11-20T08:29:37.584Z,28.63
2022-11-20T08:32:05.202Z,24.70
2022-11-20T08:34:32.731Z,28.40
2022-11-20T08:37:00.251Z,29.57
2022-11-20T08:39:27.773Z,26.00
2022-11-20T08:41:55.213Z,28.97
2022-11-20T08:44:22.734Z,26.33
2022-11-20T08:46:50.188Z,26.13
2022-11-20T08:49:19.385Z,30.73
2022-11-20T08:51:46.991Z,26.73
2022-11-20T08:54:14.669Z,26.40
2022-11-20T08:56:42.236Z,26.70
2022-11-20T08:59:26.958Z,28.73
2022-11-20T09:01:57.182Z,28.30
2022-11-20T09:04:24.750Z,28.03
2022-11-20T09:06:52.310Z,27.73
2022-11-20T09:09:20.020Z,22.70
2022-11-20T09:11:47.752Z,24.77
2022-11-20T09:14:15.279Z,26.33
2022-11-20T09:16:42.797Z,25.60
2022-11-20T09:21:59.871Z,25.80
2022-11-20T09:24:28.046Z,28.90
2022-11-20T09:26:55.759Z,24.47
2022-11-20T09:29:24.079Z,23.77
2022-11-20T09:31:51.647Z,25.77
2022-11-20T09:34:19.091Z,25.87
2022-11-20T09:36:46.581Z,26.47
2022-11-20T09:39:14.092Z,25.50
2022-11-20T09:42:00.342Z,25.97
2022-11-20T09:44:54.217Z,27.80
2022-11-20T09:47:24.911Z,30.93
2022-11-20T09:50:01.426Z,28.07
2022-11-20T09:52:51.466Z,26.73
2022-11-20T09:55:19.119Z,28.50
2022-11-20T09:57:48.651Z,26.93
2022-11-20T10:00:17.171Z,21.97
2022-11-20T10:02:44.644Z,28.73
2022-11-20T10:05:27.604Z,27.73
2022-11-20T10:07:55.296Z,32.93
2022-11-20T10:10:57.997Z,33.90
2022-11-20T10:13:41.605Z,32.23
2022-11-20T10:16:27.884Z,37.07
2022-11-20T10:19:18.414Z,31.53
2022-11-20T10:21:58.148Z,33.30
2022-11-20T10:24:25.699Z,34.90
2022-11-20T10:27:05.526Z,39.57
2022-11-20T10:29:36.685Z,44.03
2022-11-20T10:32:05.955Z,43.13
2022-11-20T10:34:39.154Z,39.27
2022-11-20T10:37:26.927Z,35.17
2022-11-20T10:40:13.118Z,36.30
2022-11-20T10:42:45.062Z,36.40
2022-11-20T10:45:30.452Z,38.70
2022-11-20T10:48:17.657Z,40.10
2022-11-20T10:51:11.570Z,40.97
2022-11-20T10:53:45.204Z,42.73
2022-11-20T10:56:31.157Z,41.53
2022-11-20T10:59:04.778Z,37.20
2022-11-20T11:01:32.602Z,36.70
2022-11-20T11:04:00.124Z,38.83
2022-11-20T11:06:42.728Z,35.83
2022-11-20T11:09:23.509Z,35.70
2022-11-20T11:11:51.306Z,37.80
2022-11-20T11:14:18.795Z,36.37
2022-11-20T11:16:59.165Z,38.07
2022-11-20T11:19:26.642Z,34.17
2022-11-20T11:21:56.062Z,33.90
2022-11-20T11:24:42.113Z,31.20
2022-11-20T11:27:17.191Z,34.67
2022-11-20T11:29:45.778Z,32.67
2022-11-20T11:32:14.869Z,36.80
2022-11-20T11:34:42.725Z,29.40
2022-11-20T11:37:21.301Z,28.80
2022-11-20T11:39:55.135Z,35.03
2022-11-20T11:42:27.316Z,28.80
2022-11-20T11:44:56.186Z,36.17
2022-11-20T11:47:34.115Z,27.57
2022-11-20T11:50:04.468Z,30.23
2022-11-20T11:52:33.577Z,29.10
2022-11-20T11:55:10.035Z,25.70
2022-11-20T11:57:45.668Z,30.30
2022-11-20T12:00:17.091Z,27.63
2022-11-20T12:02:47.675Z,30.33
2022-11-20T12:05:21.208Z,30.07
2022-11-20T12:07:48.706Z,30.47
2022-11-20T12:10:34.430Z,31.67
2022-11-20T12:13:05.794Z,30.27
2022-11-20T12:15:35.825Z,26.67
2022-11-20T12:18:03.432Z,24.67
2022-11-20T12:20:34.760Z,24.87
2022-11-20T12:23:02.266Z,24.87
2022-11-20T12:25:31.851Z,29.77
2022-11-20T12:27:59.509Z,27.47
2022-11-20T12:30:27.286Z,24.17
2022-11-20T12:32:57.146Z,24.00
2022-11-20T12:35:40.516Z,25.77
2022-11-20T12:38:17.080Z,24.43
2022-11-20T12:41:03.122Z,28.73
2022-11-20T12:43:32.415Z,23.90
2022-11-20T12:46:20.339Z,26.00
2022-11-20T12:49:00.015Z,27.30
2022-11-20T12:51:38.046Z,25.50
2022-11-20T12:54:24.157Z,26.43
2022-11-20T12:57:10.710Z,24.97
2022-11-20T12:59:43.976Z,27.53
2022-11-20T13:02:11.432Z,30.40
2022-11-20T13:04:38.830Z,27.40
2022-11-20T13:07:13.826Z,30.73
2022-11-20T13:09:47.584Z,30.37
2022-11-20T13:12:30.435Z,28.77
2022-11-20T13:15:07.195Z,26.20
2022-11-20T13:17:50.136Z,30.33
2022-11-20T13:20:19.169Z,29.63
2022-11-20T13:22:50.655Z,33.13
2022-11-20T13:25:28.588Z,32.10
2022-11-20T13:27:57.117Z,29.63
2022-11-20T13:30:25.673Z,29.70
2022-11-20T13:32:53.163Z,31.13
2022-11-20T13:35:29.177Z,30.57
2022-11-20T13:38:03.024Z,32.90
2022-11-20T13:40:30.743Z,29.20
2022-11-20T13:43:10.313Z,32.70
2022-11-20T13:45:37.966Z,30.77
2022-11-20T13:48:06.640Z,29.47
2022-11-20T13:50:37.250Z,34.53
2022-11-20T13:53:23.366Z,33.60
2022-11-20T13:56:02.013Z,36.13
2022-11-20T13:58:36.631Z,36.53
2022-11-20T14:01:11.605Z,32.13
2022-11-20T14:06:32.081Z,36.20
2022-11-20T14:09:00.151Z,31.40
2022-11-20T14:11:28.750Z,33.07
2022-11-20T14:13:56.266Z,36.33
2022-11-20T14:16:24.847Z,39.83
2022-11-20T14:18:52.366Z,33.73
2022-11-20T14:21:23.730Z,35.07
2022-11-20T14:23:53.554Z,36.00
2022-11-20T14:26:21.205Z,39.80
2022-11-20T14:28:55.340Z,36.77
2022-11-20T14:31:27.486Z,41.20
2022-11-20T14:33:55.871Z,33.80
2022-11-20T14:36:25.091Z,37.23
2022-11-20T14:38:53.238Z,34.97
2022-11-20T14:41:22.949Z,33.17
2022-11-20T14:43:52.867Z,35.83
2022-11-20T14:46:20.506Z,36.53
2022-11-20T14:48:52.729Z,32.97
2022-11-20T14:51:28.681Z,32.30
2022-11-20T14:53:56.176Z,33.23
2022-11-20T14:56:24.958Z,32.73
2022-11-20T14:58:59.146Z,34.17
2022-11-20T15:01:27.795Z,34.93
2022-11-20T15:04:04.880Z,36.00
2022-11-20T15:06:32.497Z,34.33
2022-11-20T15:08:59.991Z,31.70
2022-11-20T15:11:30.249Z,36.17
2022-11-20T15:13:58.329Z,34.80
2022-11-20T15:16:26.131Z,35.77
2022-11-20T15:18:53.699Z,30.90
2022-11-20T15:21:21.561Z,33.93
2022-11-20T15:23:49.431Z,28.73
2022-11-20T15:26:26.201Z,31.43
2022-11-20T15:28:54.212Z,34.77
2022-11-20T15:31:23.495Z,31.67
2022-11-20T15:33:51.148Z,36.23
2022-11-20T15:36:18.677Z,31.67
2022-11-20T15:38:51.177Z,32.13
2022-11-20T15:41:19.556Z,29.80
2022-11-20T15:43:47.205Z,32.40
2022-11-20T15:46:16.175Z,30.73
2022-11-20T15:48:48.158Z,30.40
2022-11-20T15:51:23.109Z,31.40
2022-11-20T15:53:50.811Z,31.37
2022-11-20T15:56:18.519Z,29.03
2022-11-20T15:58:46.120Z,31.90
2022-11-20T16:01:14.599Z,28.60
2022-11-20T16:03:42.329Z,30.83
2022-11-20T16:06:09.986Z,29.20
2022-11-20T16:08:37.576Z,33.37
2022-11-20T16:11:05.107Z,34.10
2022-11-20T16:13:33.372Z,34.57
2022-11-20T16:16:02.475Z,37.03
2022-11-20T16:18:29.991Z,29.17
2022-11-20T16:20:57.546Z,29.97
2022-11-20T16:23:25.323Z,25.97
2022-11-20T16:25:53.088Z,29.27
2022-11-20T16:28:20.825Z,30.50
2022-11-20T16:30:48.354Z,29.27
2022-11-20T16:33:17.599Z,29.10
2022-11-20T16:35:45.127Z,30.07
2022-11-20T16:38:12.701Z,27.33
2022-11-20T16:40:40.151Z,30.83
2022-11-20T16:43:11.987Z,24.73
2022-11-20T16:45:42.102Z,29.03
2022-11-20T16:48:12.996Z,30.17
2022-11-20T16:50:46.462Z,34.43
2022-11-20T16:53:14.142Z,32.90
2022-11-20T16:55:41.635Z,33.80
2022-11-20T16:58:09.148Z,35.03
2022-11-20T17:00:37.426Z,30.40
2022-11-20T17:03:05.556Z,30.23
2022-11-20T17:05:33.239Z,31.63
2022-11-20T17:08:00.951Z,37.20
2022-11-20T17:10:28.666Z,27.23
2022-11-20T17:12:56.574Z,33.50
2022-11-20T17:15:24.139Z,28.40
2022-11-20T17:17:51.846Z,31.10
2022-11-20T17:20:19.338Z,30.27
2022-11-20T17:22:46.830Z,33.33
2022-11-20T17:25:14.537Z,33.70
2022-11-20T17:27:42.002Z,28.70
2022-11-20T17:30:09.576Z,32.93
2022-11-20T17:32:38.772Z,29.40
2022-11-20T17:35:06.508Z,21.10
2022-11-20T17:37:34.151Z,25.60
2022-11-20T17:40:01.663Z,22.20
2022-11-20T17:42:29.711Z,22.47
2022-11-20T17:44:57.330Z,20.50
2022-11-20T17:47:25.050Z,20.17
2022-11-20T17:49:52.718Z,21.83
2022-11-20T17:52:20.235Z,23.73
2022-11-20T17:54:47.945Z,19.30
2022-11-20T17:57:15.391Z,24.70
2022-11-20T17:59:42.879Z,20.03
2022-11-20T18:02:10.799Z,19.50
2022-11-20T18:04:38.533Z,20.83
2022-11-20T18:07:05.995Z,19.70
2022-11-20T18:09:33.523Z,18.67
2022-11-20T18:12:01.080Z,14.03
2022-11-20T18:14:28.802Z,17.87
2022-11-20T18:16:57.885Z,17.23
2022-11-20T18:19:29.979Z,15.93
2022-11-20T18:22:00.060Z,14.47
2022-11-20T18:24:27.793Z,13.43
2022-11-20T18:26:55.425Z,14.63
2022-11-20T18:29:23.386Z,14.40
2022-11-20T18:31:51.861Z,11.23
2022-11-20T18:34:19.508Z,10.17
2022-11-20T18:36:47.315Z,6.93
2022-11-20T18:39:15.183Z,12.10
2022-11-20T18:41:42.898Z,8.40
2022-11-20T18:44:15.058Z,8.97
2022-11-20T18:46:42.904Z,8.77
2022-11-20T18:49:10.435Z,11.47
2022-11-20T18:51:38.093Z,8.97
2022-11-20T18:54:06.287Z,9.43
2022-11-20T18:56:34.446Z,11.00
2022-11-20T18:59:02.926Z,14.13
2022-11-20T19:01:30.669Z,12.63
2022-11-20T19:03:58.417Z,13.00
2022-11-20T19:06:26.585Z,6.10
2022-11-20T19:08:54.527Z,14.53
2022-11-20T19:11:22.157Z,8.27
2022-11-20T19:13:49.663Z,7.83
2022-11-20T19:16:18.397Z,12.20
2022-11-20T19:18:46.321Z,7.53
2022-11-20T19:21:16.844Z,11.17
2022-11-20T19:23:44.505Z,14.00
2022-11-20T19:26:12.015Z,15.57
2022-11-20T19:28:39.608Z,10.50
2022-11-20T19:31:08.069Z,13.03
2022-11-20T19:33:36.032Z,11.77
2022-11-20T19:36:09.910Z,17.47
2022-11-20T19:38:37.902Z,13.13
2022-11-20T19:41:06.492Z,13.67
2022-11-20T19:43:34.126Z,15.80
2022-11-20T19:46:02.079Z,12.53
2022-11-20T19:48:36.857Z,16.27
2022-11-20T19:51:15.326Z,13.47
2022-11-20T19:53:49.720Z,10.43
2022-11-20T19:56:17.309Z,13.40
2022-11-20T19:58:44.726Z,15.77
2022-11-20T20:01:12.203Z,17.90
2022-11-20T20:03:40.053Z,16.60
2022-11-20T20:06:09.047Z,22.33
2022-11-20T20:08:36.905Z,20.30
2022-11-20T20:11:30.748Z,16.60
2022-11-20T20:13:58.231Z,8.37
2022-11-20T20:16:26.298Z,16.23
2022-11-20T20:18:59.040Z,18.00
2022-11-20T20:21:26.518Z,15.80
2022-11-20T20:23:54.874Z,12.77
2022-11-20T20:26:23.395Z,18.40
2022-11-20T20:28:51.095Z,14.10
2022-11-20T20:31:20.031Z,18.10
2022-11-20T20:33:47.751Z,15.90
2022-11-20T20:36:16.252Z,17.07
2022-11-20T20:38:43.880Z,10.90
2022-11-20T20:41:11.477Z,16.63
2022-11-20T20:43:39.423Z,18.53
2022-11-20T20:46:08.122Z,15.87
2022-11-20T20:48:35.731Z,17.27
2022-11-20T20:51:03.200Z,14.77
2022-11-20T20:53:31.289Z,15.83
2022-11-20T20:55:59.350Z,16.10
2022-11-20T20:58:27.228Z,12.90
2022-11-20T21:00:55.139Z,15.67
2022-11-20T21:03:22.780Z,10.47
2022-11-20T21:05:55.917Z,21.67
2022-11-20T21:08:23.525Z,15.67
2022-11-20T21:10:51.974Z,15.73
2022-11-20T21:13:19.842Z,12.60
2022-11-20T21:15:48.566Z,16.73
2022-11-20T21:18:19.921Z,14.03
2022-11-20T21:20:47.467Z,12.57
2022-11-20T21:23:14.983Z,18.83
2022-11-20T21:25:42.511Z,17.63
2022-11-20T21:28:13.162Z,21.57
2022-11-20T21:30:44.487Z,20.20
2022-11-20T21:33:11.957Z,20.63
2022-11-20T21:35:39.484Z,22.97
2022-11-20T21:38:06.915Z,24.53
2022-11-20T21:40:34.521Z,18.77
2022-11-20T21:43:01.980Z,20.47
2022-11-20T21:45:29.571Z,15.80
2022-11-20T21:47:57.128Z,20.07
2022-11-20T21:50:24.596Z,20.40
2022-11-20T21:52:52.042Z,16.47
2022-11-20T21:55:19.592Z,17.43
2022-11-20T21:57:47.041Z,16.03
2022-11-20T22:00:14.687Z,17.67
2022-11-20T22:02:42.159Z,17.37
2022-11-20T22:05:10.032Z,15.63
2022-11-20T22:07:37.527Z,18.43
2022-11-20T22:10:05.154Z,16.07
2022-11-20T22:12:32.578Z,13.80
2022-11-20T22:15:00.100Z,15.63
2022-11-20T22:17:27.537Z,17.73
2022-11-20T22:19:55.821Z,15.70
2022-11-20T22:22:23.291Z,21.73
2022-11-20T22:24:50.871Z,16.20
2022-11-20T22:27:18.322Z,19.83
2022-11-20T22:29:45.806Z,15.37
2022-11-20T22:32:13.230Z,18.00
2022-11-20T22:34:40.683Z,12.07
2022-11-20T22:37:08.151Z,17.57
2022-11-20T22:39:37.143Z,17.80
2022-11-20T22:42:04.666Z,14.23
2022-11-20T22:44:32.084Z,17.60
2022-11-20T22:46:59.494Z,20.30
2022-11-20T22:49:27.003Z,18.67
2022-11-20T22:51:54.472Z,13.90
2022-11-20T22:54:22.042Z,13.30
2022-11-20T22:56:49.681Z,11.83
2022-11-20T22:59:17.115Z,17.23
2022-11-20T23:01:44.599Z,18.97
2022-11-20T23:04:12.047Z,11.90
2022-11-20T23:06:39.595Z,17.30
2022-11-20T23:09:08.097Z,11.43
2022-11-20T23:11:35.946Z,22.07
2022-11-20T23:14:04.964Z,27.07
2022-11-20T23:16:32.932Z,32.40
2022-11-20T23:19:08.023Z,33.53
2022-11-20T23:21:36.423Z,41.37
2022-11-20T23:24:04.043Z,45.37
2022-11-20T23:26:33.397Z,56.87
2022-11-20T23:29:01.224Z,51.07
2022-11-20T23:31:29.901Z,47.50
2022-11-20T23:33:57.317Z,57.90
2022-11-20T23:36:24.918Z,42.03
2022-11-20T23:38:52.317Z,44.10
2022-11-20T23:41:19.806Z,37.47
2022-11-20T23:43:47.249Z,32.97
2022-11-20T23:46:16.658Z,45.60
2022-11-20T23:48:45.326Z,46.47
2022-11-20T23:51:13.443Z,42.83
2022-11-20T23:53:41.003Z,31.37
2022-11-20T23:56:08.660Z,43.70
2022-11-20T23:58:37.061Z,48.40
